Orillia, Iowa
Current Conditions -  °F | °C
As of 6:54 PM on Monday 22 Dec 2014 (Local Time) from KDSM Reporting Station
Light Rain Light Rain  
Wind Chill: 35°   Ceiling: 200
Heat Index: 40°   Visibility: 2.5mi
Dew Point: 37°   Wind: 7mph
Humidity: 89%   Direction: 100°E
Pressure: 29.46"   Gusts: NA
Location:  41.5025°N, 93.7717°W
Report Text: KDSM 230054Z 10006KT 2 1/2SM -RA BR OVC002 04/03 A2946 RMK AO2 SFC VIS 4 SLP982 P0001 T00440028
Loading
Personal Weather Stations






























Interactive Weather Map New forecast layout! Learn more

10-Day Weather Forecast

Advertisements
Track Severe Weather on mobile